Time;durP1;ratioP1;P1;durP2;ratioP2;P2;SDS_P1;SDS_P2;PMS_P1;PMS_P2;Temp;Humidity;BMP_temperature;BMP_pressure;BME280_temperature;BME280_humidity;BME280_pressure;Samples;Min_cycle;Max_cycle;Signal;HPM_P1;HPM_P2
2023/07/31 00:00:15;;;;;;;7.40;2.70;;;20.90;48.40;;;;;;5094606;28;20168;-52
2023/07/31 00:02:41;;;;;;;4.27;2.73;;;20.90;48.40;;;;;;5094417;28;20983;-53
2023/07/31 00:05:09;;;;;;;4.33;2.43;;;20.90;48.00;;;;;;5094536;28;20422;-50
2023/07/31 00:07:35;;;;;;;10.10;3.40;;;20.90;48.20;;;;;;5094272;28;20459;-52
2023/07/31 00:10:01;;;;;;;3.10;2.50;;;20.90;48.30;;;;;;5094204;28;20398;-53
2023/07/31 00:12:27;;;;;;;6.30;2.97;;;20.90;48.00;;;;;;5094178;28;20211;-54
2023/07/31 00:14:53;;;;;;;5.60;2.70;;;20.90;48.00;;;;;;5094311;28;20226;-52
2023/07/31 00:17:19;;;;;;;7.20;2.80;;;20.90;47.80;;;;;;5094440;28;20168;-54
2023/07/31 00:19:46;;;;;;;4.60;2.93;;;20.90;47.60;;;;;;5093927;28;20428;-50
2023/07/31 00:22:12;;;;;;;8.57;2.47;;;20.80;47.60;;;;;;5094245;28;20486;-54
2023/07/31 00:24:37;;;;;;;8.80;3.13;;;20.80;47.80;;;;;;5092751;28;20410;-51
2023/07/31 00:27:04;;;;;;;4.63;2.97;;;20.80;47.90;;;;;;5093971;28;20506;-56
2023/07/31 00:29:30;;;;;;;4.83;2.37;;;20.80;47.90;;;;;;5093727;28;20179;-53
2023/07/31 00:31:56;;;;;;;6.83;2.30;;;20.80;47.60;;;;;;5093203;28;20477;-55
2023/07/31 00:34:22;;;;;;;9.20;3.20;;;20.80;47.90;;;;;;5093853;28;20901;-53
2023/07/31 00:36:48;;;;;;;4.67;2.10;;;20.80;48.00;;;;;;5093846;28;20251;-53
2023/07/31 00:39:13;;;;;;;4.40;2.67;;;20.70;47.70;;;;;;5092299;28;20418;-52
2023/07/31 00:41:39;;;;;;;5.60;2.17;;;20.70;47.60;;;;;;5093719;28;20219;-54
2023/07/31 00:44:05;;;;;;;3.37;2.50;;;20.70;47.80;;;;;;5094032;28;20172;-53
2023/07/31 00:46:31;;;;;;;5.87;2.97;;;20.70;47.80;;;;;;5093623;28;20176;-53
2023/07/31 00:48:57;;;;;;;7.37;3.40;;;20.70;48.10;;;;;;5093430;28;20247;-54
2023/07/31 00:51:23;;;;;;;4.87;2.40;;;20.60;47.80;;;;;;5093247;28;20204;-53
2023/07/31 00:53:49;;;;;;;5.23;3.20;;;20.60;48.00;;;;;;5092285;28;20421;-52
2023/07/31 00:56:16;;;;;;;4.47;2.57;;;20.60;48.00;;;;;;5093732;28;20405;-54
2023/07/31 00:58:42;;;;;;;5.83;2.60;;;20.70;48.20;;;;;;5093235;28;20405;-53
2023/07/31 01:01:07;;;;;;;4.73;3.53;;;20.70;48.40;;;;;;5093307;28;20402;-51
2023/07/31 01:03:33;;;;;;;3.87;3.03;;;20.70;49.00;;;;;;5093362;28;20489;-54
2023/07/31 01:06:36;;;;;;;4.13;2.70;;;20.70;48.20;;;;;;5093171;28;20187;-54
2023/07/31 01:09:06;;;;;;;4.63;2.60;;;20.80;48.00;;;;;;5086127;28;20183;-51
2023/07/31 01:11:38;;;;;;;6.03;3.13;;;20.70;48.20;;;;;;5093090;28;20453;-55
2023/07/31 01:14:04;;;;;;;5.30;2.73;;;20.70;48.00;;;;;;5093131;28;20394;-54
2023/07/31 01:16:30;;;;;;;4.27;2.80;;;20.80;48.10;;;;;;5092979;28;20467;-53
2023/07/31 01:18:56;;;;;;;4.27;2.50;;;20.80;48.10;;;;;;5093021;28;20946;-52
2023/07/31 01:21:48;;;;;;;3.40;2.40;;;20.80;47.90;;;;;;5093201;28;20418;-52
2023/07/31 01:24:30;;;;;;;6.83;3.10;;;20.70;47.70;;;;;;5084195;28;20233;-52
2023/07/31 01:27:02;;;;;;;6.07;2.97;;;20.80;48.00;;;;;;5092801;28;20406;-54
2023/07/31 01:30:10;;;;;;;3.53;2.50;;;20.70;48.30;;;;;;5092629;28;20459;-54
2023/07/31 01:32:40;;;;;;;6.50;2.30;;;20.70;46.80;;;;;;5089764;28;20965;-52
2023/07/31 01:35:06;;;;;;;5.13;3.40;;;20.60;47.70;;;;;;5092683;28;20398;-53
2023/07/31 01:37:32;;;;;;;4.27;2.83;;;20.60;48.10;;;;;;5092589;28;20406;-51
2023/07/31 01:39:58;;;;;;;4.40;2.90;;;20.60;48.30;;;;;;5092535;28;20397;-52
2023/07/31 01:42:24;;;;;;;5.80;2.90;;;20.60;48.10;;;;;;5092575;28;20202;-53
2023/07/31 01:44:49;;;;;;;4.37;2.63;;;20.60;48.20;;;;;;5091674;28;20179;-54
2023/07/31 01:47:15;;;;;;;3.90;2.10;;;20.60;48.20;;;;;;5092681;28;20732;-51
2023/07/31 01:49:41;;;;;;;4.17;2.90;;;20.70;47.70;;;;;;5092187;28;20180;-53
2023/07/31 01:52:07;;;;;;;9.63;3.40;;;20.70;47.90;;;;;;5092256;28;20297;-54
2023/07/31 01:54:33;;;;;;;5.17;2.90;;;20.70;47.90;;;;;;5092613;28;20176;-50
2023/07/31 01:56:59;;;;;;;2.70;2.40;;;20.70;47.80;;;;;;5092378;28;20421;-52
2023/07/31 01:59:25;;;;;;;5.30;2.40;;;20.70;48.00;;;;;;5092122;28;20406;-53
2023/07/31 02:01:50;;;;;;;3.77;3.03;;;20.80;47.60;;;;;;5091071;28;20889;-53
2023/07/31 02:04:16;;;;;;;6.67;2.90;;;20.80;47.50;;;;;;5092501;28;20184;-50
2023/07/31 02:06:43;;;;;;;5.10;2.60;;;20.90;47.60;;;;;;5092317;28;20917;-53
2023/07/31 02:09:09;;;;;;;5.43;3.27;;;20.90;47.70;;;;;;5092086;28;20432;-54
2023/07/31 02:11:35;;;;;;;5.10;2.57;;;20.90;47.20;;;;;;5092051;28;20480;-51
2023/07/31 02:14:01;;;;;;;4.30;2.43;;;20.90;46.70;;;;;;5092266;28;20402;-49
2023/07/31 02:16:27;;;;;;;6.77;2.73;;;21.00;46.60;;;;;;5092170;28;20224;-53
2023/07/31 02:18:52;;;;;;;4.30;2.50;;;21.00;46.80;;;;;;5091811;28;20172;-51
2023/07/31 02:21:18;;;;;;;5.00;2.70;;;21.10;46.70;;;;;;5092050;28;20278;-52
2023/07/31 02:23:44;;;;;;;3.10;2.20;;;21.10;46.60;;;;;;5092059;28;20496;-52
2023/07/31 02:26:10;;;;;;;8.93;3.23;;;21.20;46.70;;;;;;5092026;28;20184;-53
2023/07/31 02:28:36;;;;;;;4.70;2.90;;;21.20;46.60;;;;;;5091828;28;20172;-51
2023/07/31 02:31:01;;;;;;;2.97;2.20;;;21.20;46.70;;;;;;5091923;28;20223;-52
2023/07/31 02:33:27;;;;;;;4.77;2.60;;;21.30;46.70;;;;;;5092010;28;20247;-50
2023/07/31 02:35:53;;;;;;;4.63;2.13;;;21.30;46.20;;;;;;5092045;28;20517;-53
2023/07/31 02:38:19;;;;;;;8.00;2.37;;;21.30;45.60;;;;;;5092117;28;20509;-53
2023/07/31 02:40:45;;;;;;;4.80;3.10;;;21.40;46.00;;;;;;5090722;28;20620;-50
2023/07/31 02:43:11;;;;;;;5.17;2.70;;;21.40;46.10;;;;;;5091852;28;20289;-53
2023/07/31 02:45:36;;;;;;;6.40;2.70;;;21.40;45.90;;;;;;5091906;28;20422;-55
2023/07/31 02:48:02;;;;;;;4.20;2.20;;;21.40;45.60;;;;;;5091624;28;20169;-52
2023/07/31 02:50:28;;;;;;;3.50;2.23;;;21.40;46.20;;;;;;5091989;28;20413;-52
2023/07/31 02:52:54;;;;;;;4.10;2.47;;;21.40;46.50;;;;;;5091695;28;20857;-51
2023/07/31 02:55:20;;;;;;;5.83;2.37;;;21.40;46.20;;;;;;5092327;28;20416;-51
2023/07/31 02:57:47;;;;;;;5.60;2.30;;;21.50;46.50;;;;;;5095631;28;20172;-51
2023/07/31 03:00:13;;;;;;;7.07;2.60;;;21.50;46.40;;;;;;5095797;28;20680;-54
2023/07/31 03:02:38;;;;;;;3.70;2.30;;;21.50;46.20;;;;;;5095577;28;20517;-51
2023/07/31 03:05:04;;;;;;;4.60;2.80;;;21.50;45.90;;;;;;5095962;28;20497;-53
2023/07/31 03:07:30;;;;;;;4.73;2.17;;;21.40;45.80;;;;;;5095722;28;20416;-53
2023/07/31 03:09:56;;;;;;;3.00;1.83;;;21.50;46.00;;;;;;5095371;28;20409;-51
2023/07/31 03:12:22;;;;;;;4.73;2.47;;;21.40;46.30;;;;;;5095232;28;20218;-53
2023/07/31 03:14:48;;;;;;;5.20;2.60;;;21.40;46.60;;;;;;5095429;28;20401;-53
2023/07/31 03:17:15;;;;;;;4.50;2.60;;;21.40;46.70;;;;;;5095401;28;20409;-54
2023/07/31 03:19:41;;;;;;;6.20;2.33;;;21.40;47.10;;;;;;5095155;28;20176;-51
2023/07/31 03:22:07;;;;;;;3.80;2.70;;;21.40;47.00;;;;;;5095291;28;20425;-55
2023/07/31 03:24:32;;;;;;;3.20;2.27;;;21.40;46.10;;;;;;5094008;28;20588;-53
2023/07/31 03:26:58;;;;;;;9.23;2.80;;;21.30;46.50;;;;;;5095175;28;20262;-55
2023/07/31 03:29:24;;;;;;;4.30;2.70;;;21.30;46.00;;;;;;5095078;28;20168;-56
2023/07/31 03:31:50;;;;;;;3.40;2.43;;;21.30;45.30;;;;;;5094949;28;20241;-53
2023/07/31 03:34:16;;;;;;;3.20;2.30;;;21.30;45.40;;;;;;5095322;28;20251;-54
2023/07/31 03:36:41;;;;;;;4.23;2.50;;;21.30;44.90;;;;;;5095030;28;20406;-53
2023/07/31 03:39:07;;;;;;;4.10;2.50;;;21.30;44.30;;;;;;5094849;28;20203;-53
2023/07/31 03:41:33;;;;;;;5.47;2.70;;;21.20;44.30;;;;;;5094872;28;20433;-54
2023/07/31 03:43:59;;;;;;;6.77;2.63;;;21.20;44.50;;;;;;5094962;28;20406;-54
2023/07/31 03:46:25;;;;;;;3.00;2.40;;;21.20;44.70;;;;;;5094739;28;20272;-53
2023/07/31 03:48:51;;;;;;;3.47;2.30;;;21.20;45.20;;;;;;5093347;28;20565;-53
2023/07/31 03:51:17;;;;;;;4.57;2.37;;;21.20;45.60;;;;;;5093867;28;20996;-52
2023/07/31 03:53:44;;;;;;;6.47;3.00;;;21.10;46.00;;;;;;5094613;28;20475;-54
2023/07/31 03:56:10;;;;;;;5.93;3.10;;;21.10;46.30;;;;;;5094598;28;20401;-52
2023/07/31 03:58:36;;;;;;;5.90;3.10;;;21.10;46.50;;;;;;5094389;28;20513;-53
2023/07/31 04:01:03;;;;;;;5.30;2.90;;;21.10;46.60;;;;;;5094722;28;20416;-53
2023/07/31 04:03:29;;;;;;;4.60;2.87;;;21.10;46.90;;;;;;5094565;28;20479;-53
2023/07/31 04:05:56;;;;;;;3.00;2.63;;;21.10;46.70;;;;;;5094447;28;20410;-52
2023/07/31 04:08:22;;;;;;;4.27;2.70;;;21.10;46.90;;;;;;5075135;28;20510;-53
2023/07/31 04:10:48;;;;;;;4.70;3.40;;;21.10;47.00;;;;;;5094332;28;20493;-51
2023/07/31 04:13:14;;;;;;;4.03;2.73;;;21.00;47.10;;;;;;5094216;28;20426;-54
2023/07/31 04:15:41;;;;;;;5.30;2.63;;;21.10;47.50;;;;;;5092975;28;20459;-55
2023/07/31 04:18:06;;;;;;;5.50;2.57;;;21.10;47.70;;;;;;5094044;28;20433;-51
2023/07/31 04:20:32;;;;;;;3.57;2.63;;;21.10;47.10;;;;;;5094296;28;20446;-50
2023/07/31 04:22:58;;;;;;;6.67;2.50;;;21.10;47.50;;;;;;5094401;28;20192;-51
2023/07/31 04:25:24;;;;;;;4.80;2.67;;;21.10;48.00;;;;;;5094013;28;20402;-53
2023/07/31 04:27:50;;;;;;;4.60;3.40;;;21.20;48.50;;;;;;5093883;28;20406;-53
2023/07/31 04:30:16;;;;;;;5.20;2.83;;;21.20;48.60;;;;;;5093928;28;20708;-53
2023/07/31 04:32:41;;;;;;;3.60;2.60;;;21.20;48.60;;;;;;5093928;28;20195;-50
2023/07/31 04:35:07;;;;;;;3.60;2.83;;;21.20;48.60;;;;;;5093881;28;20427;-55
2023/07/31 04:37:33;;;;;;;5.30;2.90;;;21.20;48.60;;;;;;5093808;28;20179;-55
2023/07/31 04:39:59;;;;;;;3.67;2.60;;;21.20;49.00;;;;;;5093587;28;20481;-52
2023/07/31 04:42:25;;;;;;;3.57;3.27;;;21.20;49.00;;;;;;5093918;28;20448;-52
2023/07/31 04:44:52;;;;;;;8.90;3.40;;;21.20;48.80;;;;;;5093876;28;20168;-55
2023/07/31 04:47:19;;;;;;;3.13;2.80;;;21.20;49.60;;;;;;5093601;28;20221;-53
2023/07/31 04:49:44;;;;;;;5.93;3.60;;;21.30;48.80;;;;;;5093684;28;20759;-54
2023/07/31 04:52:10;;;;;;;3.47;2.63;;;21.20;49.00;;;;;;5093295;28;20462;-54
2023/07/31 04:54:36;;;;;;;5.67;3.60;;;21.30;49.00;;;;;;5093630;28;20188;-52
2023/07/31 04:57:02;;;;;;;4.23;2.73;;;21.30;49.10;;;;;;5092149;28;20753;-53
2023/07/31 04:59:28;;;;;;;5.00;2.67;;;21.30;49.10;;;;;;5093160;28;20410;-52
2023/07/31 05:01:54;;;;;;;5.70;2.97;;;21.30;49.30;;;;;;5093562;28;20426;-54
2023/07/31 05:04:20;;;;;;;5.23;2.60;;;21.30;49.80;;;;;;5093342;28;20414;-54
2023/07/31 05:06:46;;;;;;;6.40;3.60;;;21.30;49.30;;;;;;5093349;28;20492;-52
2023/07/31 05:09:12;;;;;;;7.63;3.63;;;21.30;49.10;;;;;;5093039;28;20451;-53
2023/07/31 05:11:38;;;;;;;6.10;3.43;;;21.30;49.20;;;;;;5093065;28;20211;-52
2023/07/31 05:14:04;;;;;;;5.60;3.30;;;21.20;49.40;;;;;;5093114;28;20402;-50
2023/07/31 05:16:29;;;;;;;3.77;2.97;;;21.20;49.60;;;;;;5093336;28;20398;-51
2023/07/31 05:18:55;;;;;;;6.47;3.67;;;21.20;49.50;;;;;;5091402;28;20168;-54
2023/07/31 05:21:21;;;;;;;3.60;2.23;;;21.20;49.80;;;;;;5093046;28;20430;-51
2023/07/31 05:23:47;;;;;;;9.90;3.53;;;21.20;49.30;;;;;;5093215;28;20554;-52
2023/07/31 05:26:13;;;;;;;6.93;3.27;;;21.20;49.60;;;;;;5093214;28;20171;-54
2023/07/31 05:28:39;;;;;;;6.33;3.00;;;21.20;49.20;;;;;;5092921;28;20428;-53
2023/07/31 05:31:06;;;;;;;5.77;2.97;;;21.20;49.30;;;;;;5092723;28;20446;-52
2023/07/31 05:33:32;;;;;;;5.23;2.93;;;21.20;49.10;;;;;;5092873;28;20718;-51
2023/07/31 05:35:58;;;;;;;4.57;3.40;;;21.20;49.10;;;;;;5092772;28;20768;-54
2023/07/31 05:38:24;;;;;;;5.20;2.93;;;21.30;49.20;;;;;;5091268;28;20406;-54
2023/07/31 05:40:50;;;;;;;3.07;2.70;;;21.20;48.80;;;;;;5092619;28;20972;-50
2023/07/31 05:43:16;;;;;;;5.23;3.07;;;21.30;48.90;;;;;;5093150;28;20414;-51
2023/07/31 05:45:44;;;;;;;4.43;3.20;;;21.20;49.10;;;;;;5092700;28;20960;-53
2023/07/31 05:48:10;;;;;;;4.00;3.37;;;21.30;49.20;;;;;;5092335;28;20172;-53
2023/07/31 05:50:39;;;;;;;3.90;2.93;;;21.30;49.30;;;;;;5092397;28;20417;-50
2023/07/31 05:53:04;;;;;;;11.93;3.60;;;21.10;49.00;;;;;;5092787;28;20207;-53
2023/07/31 05:55:30;;;;;;;5.20;3.70;;;21.30;49.10;;;;;;5092400;28;20406;-55
2023/07/31 05:57:56;;;;;;;5.53;3.40;;;21.30;49.50;;;;;;5092194;28;20421;-51
2023/07/31 06:00:22;;;;;;;4.20;3.00;;;21.40;49.20;;;;;;5092746;28;20529;-52
2023/07/31 06:02:48;;;;;;;5.23;3.17;;;21.40;49.20;;;;;;5092420;28;20210;-53
2023/07/31 06:05:14;;;;;;;5.67;3.50;;;21.40;49.00;;;;;;5092339;28;20888;-53
2023/07/31 06:07:40;;;;;;;7.03;3.73;;;21.50;49.20;;;;;;5092290;28;20404;-51
2023/07/31 06:10:06;;;;;;;7.27;3.47;;;21.50;49.70;;;;;;5091961;28;20179;-51
2023/07/31 06:12:33;;;;;;;4.50;2.53;;;21.50;50.10;;;;;;5092310;28;20482;-55
2023/07/31 06:14:59;;;;;;;3.50;2.70;;;21.40;49.60;;;;;;5092261;28;20398;-51
2023/07/31 06:17:25;;;;;;;4.60;2.77;;;21.50;49.20;;;;;;5092229;28;20398;-53
2023/07/31 06:19:52;;;;;;;5.47;3.40;;;21.50;49.50;;;;;;5092189;28;20926;-52
2023/07/31 06:22:18;;;;;;;4.40;2.60;;;21.50;49.50;;;;;;5091993;28;20950;-53
2023/07/31 06:24:44;;;;;;;5.03;2.43;;;21.50;49.80;;;;;;5092392;28;20393;-52
2023/07/31 06:27:10;;;;;;;8.33;3.37;;;21.50;49.80;;;;;;5092028;28;20410;-54
2023/07/31 06:29:36;;;;;;;5.97;3.00;;;21.60;49.40;;;;;;5090504;28;20414;-51
2023/07/31 06:32:03;;;;;;;6.07;3.17;;;21.60;49.30;;;;;;5095434;28;20449;-51
2023/07/31 06:34:29;;;;;;;8.77;3.10;;;21.60;49.60;;;;;;5096245;28;20536;-53
2023/07/31 06:36:56;;;;;;;6.90;3.30;;;21.60;49.30;;;;;;5096212;28;20440;-51
2023/07/31 06:39:22;;;;;;;4.43;2.50;;;21.60;49.00;;;;;;5095815;28;20759;-51
2023/07/31 06:41:47;;;;;;;6.73;2.80;;;21.60;49.10;;;;;;5096228;28;20433;-54
2023/07/31 06:44:13;;;;;;;4.17;3.03;;;21.60;49.10;;;;;;5096121;28;20933;-51
2023/07/31 06:46:39;;;;;;;4.57;2.83;;;21.60;49.50;;;;;;5096033;28;20168;-50
2023/07/31 06:49:05;;;;;;;6.00;3.50;;;21.60;49.50;;;;;;5095752;28;20436;-53
2023/07/31 06:51:33;;;;;;;4.83;2.77;;;21.70;49.80;;;;;;5095695;28;20199;-52
2023/07/31 06:53:59;;;;;;;5.80;3.63;;;21.70;50.20;;;;;;5095765;28;20195;-53
2023/07/31 06:56:26;;;;;;;5.10;2.50;;;21.70;50.40;;;;;;5095781;28;20437;-54
2023/07/31 06:58:51;;;;;;;7.70;3.00;;;21.80;50.60;;;;;;5095623;28;20168;-51
2023/07/31 07:01:17;;;;;;;3.97;3.40;;;21.80;51.00;;;;;;5095657;28;20418;-54
2023/07/31 07:03:43;;;;;;;5.20;3.93;;;21.90;50.50;;;;;;5095935;28;20199;-52
2023/07/31 07:06:09;;;;;;;3.60;3.27;;;21.90;50.50;;;;;;5095899;28;20241;-52
2023/07/31 07:08:34;;;;;;;4.07;3.00;;;22.00;50.50;;;;;;5095318;28;20714;-52
2023/07/31 07:11:00;;;;;;;5.33;3.17;;;22.00;50.60;;;;;;5095465;28;20214;-52
2023/07/31 07:13:26;;;;;;;4.70;3.57;;;22.10;51.10;;;;;;5095509;28;20582;-55
2023/07/31 07:15:52;;;;;;;4.57;2.97;;;22.10;50.50;;;;;;5095629;28;20168;-51
2023/07/31 07:18:18;;;;;;;5.50;3.87;;;22.20;50.60;;;;;;5095294;28;20659;-50
2023/07/31 07:20:50;;;;;;;3.40;2.63;;;22.20;50.30;;;;;;5095455;28;20171;-51
2023/07/31 07:23:17;;;;;;;11.37;3.63;;;22.20;50.20;;;;;;5093960;28;20409;-54
2023/07/31 07:25:43;;;;;;;7.17;3.57;;;22.20;50.10;;;;;;5077146;28;20433;-52
2023/07/31 07:28:10;;;;;;;6.17;3.70;;;22.20;49.30;;;;;;5094981;28;20783;-52
2023/07/31 07:30:36;;;;;;;4.83;3.03;;;22.30;49.30;;;;;;5095221;28;20410;-54
2023/07/31 07:33:02;;;;;;;5.83;3.10;;;22.40;49.70;;;;;;5095087;28;20425;-51
2023/07/31 07:35:28;;;;;;;4.43;3.50;;;22.40;49.80;;;;;;5095059;28;20413;-52
2023/07/31 07:37:53;;;;;;;6.10;3.20;;;22.50;49.40;;;;;;5094731;28;20409;-51
2023/07/31 07:40:20;;;;;;;9.20;3.60;;;22.50;48.60;;;;;;5095006;28;20406;-54
2023/07/31 07:42:46;;;;;;;3.97;3.00;;;22.60;48.50;;;;;;5093481;28;20499;-52
2023/07/31 07:45:13;;;;;;;4.20;2.87;;;22.70;47.80;;;;;;5093633;28;20418;-52
2023/07/31 07:47:41;;;;;;;3.50;3.10;;;22.70;48.70;;;;;;5095101;28;20437;-54
2023/07/31 07:50:07;;;;;;;6.43;3.30;;;22.70;48.70;;;;;;5094641;28;20412;-51
2023/07/31 07:52:33;;;;;;;10.50;3.33;;;22.80;48.60;;;;;;5094556;28;20467;-51
2023/07/31 07:55:00;;;;;;;4.10;3.17;;;22.80;48.00;;;;;;5094721;28;20402;-53
2023/07/31 07:57:26;;;;;;;5.93;3.43;;;22.80;48.00;;;;;;5094837;28;20410;-53
2023/07/31 07:59:52;;;;;;;4.97;3.10;;;22.90;48.60;;;;;;5094530;28;20813;-50
2023/07/31 08:02:18;;;;;;;6.67;3.47;;;22.90;48.40;;;;;;5093257;28;20516;-51
2023/07/31 08:04:44;;;;;;;4.63;3.37;;;22.90;48.00;;;;;;5094497;28;20406;-52
2023/07/31 08:07:13;;;;;;;5.00;3.53;;;23.00;48.20;;;;;;5094435;28;20402;-51
2023/07/31 08:09:39;;;;;;;8.40;3.37;;;23.00;47.80;;;;;;5094156;28;20434;-54
2023/07/31 08:12:06;;;;;;;6.20;3.10;;;23.10;46.90;;;;;;5094500;28;20806;-50
2023/07/31 08:14:32;;;;;;;7.60;3.80;;;23.10;46.50;;;;;;5093041;28;20405;-51
2023/07/31 08:16:58;;;;;;;6.67;4.37;;;23.10;47.20;;;;;;5093040;28;20417;-50
2023/07/31 08:19:24;;;;;;;6.93;3.50;;;23.10;47.50;;;;;;5093957;28;20961;-53
2023/07/31 08:21:49;;;;;;;3.93;3.50;;;23.30;47.30;;;;;;5094159;28;20433;-51
2023/07/31 08:24:15;;;;;;;6.03;3.63;;;23.30;47.00;;;;;;5092917;28;20259;-51
2023/07/31 08:26:42;;;;;;;6.70;4.20;;;23.40;46.90;;;;;;5094039;28;20169;-54
2023/07/31 08:29:08;;;;;;;7.43;3.63;;;23.40;47.60;;;;;;5093759;28;20167;-51
2023/07/31 08:31:34;;;;;;;5.23;3.40;;;23.40;46.10;;;;;;5092642;28;20453;-53
2023/07/31 08:34:01;;;;;;;4.87;2.37;;;23.40;45.90;;;;;;5093851;28;20506;-51
2023/07/31 08:36:26;;;;;;;9.00;3.17;;;23.40;45.30;;;;;;5093820;28;20795;-51
2023/07/31 08:38:52;;;;;;;6.63;3.37;;;23.50;44.60;;;;;;5093693;28;20402;-51
2023/07/31 08:41:18;;;;;;;7.10;3.80;;;23.50;44.50;;;;;;5093806;28;20190;-54
2023/07/31 08:43:46;;;;;;;7.47;3.40;;;23.50;45.20;;;;;;5093808;28;20922;-52
2023/07/31 08:46:12;;;;;;;5.13;3.80;;;23.40;45.00;;;;;;5093887;28;20402;-51
2023/07/31 08:48:41;;;;;;;4.97;3.33;;;23.40;45.30;;;;;;5093966;28;20405;-54
2023/07/31 08:51:07;;;;;;;4.30;2.60;;;23.40;44.60;;;;;;5093575;28;20502;-51
2023/07/31 08:53:33;;;;;;;7.10;3.50;;;23.40;43.30;;;;;;5093137;28;21138;-51
2023/07/31 08:55:59;;;;;;;8.63;2.87;;;23.30;44.30;;;;;;5093671;28;20987;-54
2023/07/31 08:58:27;;;;;;;4.37;3.33;;;23.30;44.60;;;;;;5093183;28;20413;-51
2023/07/31 09:00:55;;;;;;;5.10;3.00;;;23.30;43.80;;;;;;5093413;28;20406;-51
2023/07/31 09:03:25;;;;;;;6.30;3.37;;;23.40;43.90;;;;;;5093374;28;20402;-51
2023/07/31 09:05:51;;;;;;;11.33;4.27;;;23.30;44.30;;;;;;5093343;28;20759;-54
2023/07/31 09:08:21;;;;;;;5.93;4.00;;;23.30;44.20;;;;;;5093067;28;20413;-51
2023/07/31 09:10:49;;;;;;;5.27;2.67;;;23.40;44.20;;;;;;5095942;28;20438;-51
2023/07/31 09:13:16;;;;;;;5.43;3.60;;;23.30;44.30;;;;;;5096154;28;20426;-51
2023/07/31 09:15:44;;;;;;;9.80;2.93;;;23.30;44.30;;;;;;5094112;28;20427;-53
2023/07/31 09:18:11;;;;;;;6.97;3.30;;;23.30;43.90;;;;;;5093110;28;20452;-50
2023/07/31 09:20:37;;;;;;;4.17;3.43;;;23.30;44.70;;;;;;5093127;28;20501;-53
2023/07/31 09:23:11;;;;;;;5.90;3.90;;;23.30;44.60;;;;;;5094926;28;20977;-53
2023/07/31 09:25:39;;;;;;;5.77;3.40;;;23.40;44.70;;;;;;5094202;28;20385;-50
2023/07/31 09:28:09;;;;;;;9.27;2.80;;;23.40;44.70;;;;;;5092643;28;20402;-53
2023/07/31 09:30:50;;;;;;;6.40;3.73;;;23.40;44.40;;;;;;5094019;28;20401;-55
2023/07/31 09:33:16;;;;;;;11.80;3.80;;;23.40;44.40;;;;;;5092869;28;20992;-52
2023/07/31 09:35:43;;;;;;;6.00;4.63;;;23.40;44.70;;;;;;5094928;28;20476;-52
2023/07/31 09:38:14;;;;;;;6.30;3.60;;;23.40;44.00;;;;;;5094788;28;20414;-54
2023/07/31 09:40:45;;;;;;;3.77;3.37;;;23.40;43.90;;;;;;5093503;28;20405;-54
2023/07/31 09:43:12;;;;;;;5.20;3.67;;;23.40;44.10;;;;;;5093295;28;20467;-51
2023/07/31 09:45:40;;;;;;;8.80;3.53;;;23.50;45.20;;;;;;5092877;28;20390;-51
2023/07/31 09:48:10;;;;;;;7.60;3.27;;;23.40;44.70;;;;;;5092526;28;20433;-53
2023/07/31 09:50:41;;;;;;;4.80;3.43;;;23.50;43.20;;;;;;5093898;28;20495;-52
2023/07/31 09:53:09;;;;;;;4.00;3.60;;;23.50;43.70;;;;;;5093597;28;20474;-54
2023/07/31 09:55:36;;;;;;;3.77;2.93;;;23.50;44.10;;;;;;5092938;28;20425;-55
2023/07/31 09:58:07;;;;;;;6.10;3.30;;;23.50;44.10;;;;;;5092832;28;20760;-51
2023/07/31 10:00:35;;;;;;;5.20;3.03;;;23.60;43.80;;;;;;5092914;28;20907;-52
2023/07/31 10:03:10;;;;;;;10.10;3.40;;;23.60;43.20;;;;;;5094163;28;20826;-54
2023/07/31 10:05:36;;;;;;;4.50;3.90;;;23.70;43.90;;;;;;5091379;28;20425;-51
2023/07/31 10:08:03;;;;;;;6.90;3.83;;;23.70;43.30;;;;;;5092305;28;20976;-51
2023/07/31 10:10:30;;;;;;;5.13;3.07;;;23.80;42.40;;;;;;5092379;28;20168;-52
2023/07/31 10:12:57;;;;;;;3.60;2.93;;;23.70;43.10;;;;;;5093046;28;20434;-53
2023/07/31 10:15:24;;;;;;;4.67;3.70;;;23.70;43.30;;;;;;5092594;28;20412;-54
2023/07/31 10:17:52;;;;;;;6.70;3.10;;;23.80;43.00;;;;;;5092137;28;20421;-52
2023/07/31 10:20:17;;;;;;;6.77;4.37;;;23.80;43.70;;;;;;5095029;28;20501;-52
2023/07/31 10:22:47;;;;;;;5.90;3.03;;;23.80;43.30;;;;;;5095893;28;20824;-54
2023/07/31 10:25:15;;;;;;;6.10;3.70;;;23.80;43.00;;;;;;5094367;28;20160;-54
2023/07/31 10:27:42;;;;;;;5.67;3.70;;;23.80;42.80;;;;;;5094413;28;20995;-51
2023/07/31 10:30:15;;;;;;;7.60;3.93;;;23.80;42.80;;;;;;5093658;28;20919;-50
2023/07/31 10:32:43;;;;;;;9.50;3.80;;;23.90;43.00;;;;;;5091901;28;20975;-50
2023/07/31 10:35:09;;;;;;;9.77;3.47;;;23.90;42.50;;;;;;5092956;28;20513;-53
2023/07/31 10:37:41;;;;;;;4.90;3.43;;;23.90;42.30;;;;;;5094025;28;20855;-51
2023/07/31 10:40:13;;;;;;;3.70;2.83;;;23.90;42.50;;;;;;5091793;28;20915;-53
2023/07/31 10:42:48;;;;;;;3.67;3.07;;;23.90;42.90;;;;;;5092017;28;20440;-53
2023/07/31 10:45:41;;;;;;;8.83;3.10;;;24.00;44.00;;;;;;5094351;28;20410;-52
2023/07/31 10:48:14;;;;;;;4.67;3.43;;;24.10;43.40;;;;;;5092672;28;20818;-53
2023/07/31 10:50:51;;;;;;;5.33;3.57;;;24.20;42.30;;;;;;5093688;28;21000;-52
2023/07/31 10:53:27;;;;;;;5.23;3.50;;;24.20;42.10;;;;;;5093607;28;20933;-50
2023/07/31 10:55:53;;;;;;;5.00;3.63;;;24.30;43.00;;;;;;5093303;28;20408;-54
2023/07/31 10:58:21;;;;;;;6.03;3.33;;;24.30;43.70;;;;;;5092508;28;20418;-52
2023/07/31 11:00:47;;;;;;;5.47;3.77;;;24.40;43.40;;;;;;5093467;28;20427;-52
2023/07/31 11:03:17;;;;;;;4.23;3.13;;;24.40;42.10;;;;;;5092743;28;20425;-50
2023/07/31 11:05:58;;;;;;;5.53;3.27;;;24.40;42.80;;;;;;5092889;28;21008;-53
2023/07/31 11:08:26;;;;;;;4.13;3.00;;;24.40;42.50;;;;;;5092523;28;20408;-51
2023/07/31 11:11:01;;;;;;;5.23;3.50;;;24.40;41.90;;;;;;5094068;28;20552;-53
2023/07/31 11:13:28;;;;;;;7.20;3.97;;;24.50;41.60;;;;;;5091885;28;20911;-52
2023/07/31 11:15:54;;;;;;;5.20;3.67;;;24.50;41.40;;;;;;5092162;28;20405;-55
2023/07/31 11:18:20;;;;;;;4.00;3.00;;;24.50;41.30;;;;;;5095882;28;21107;-52
2023/07/31 11:20:46;;;;;;;3.27;2.83;;;24.60;41.80;;;;;;5097153;28;20168;-53
2023/07/31 11:23:13;;;;;;;4.00;3.60;;;24.60;42.60;;;;;;5096328;28;20415;-51
2023/07/31 11:25:41;;;;;;;5.33;3.60;;;24.60;42.80;;;;;;5095756;28;20463;-52
2023/07/31 11:28:10;;;;;;;6.20;3.33;;;24.60;43.30;;;;;;5096237;28;20837;-54
2023/07/31 11:30:36;;;;;;;3.33;2.63;;;24.60;43.90;;;;;;5097040;28;20408;-53
2023/07/31 11:33:05;;;;;;;3.70;3.00;;;24.60;43.50;;;;;;5096574;28;20779;-51
2023/07/31 11:35:32;;;;;;;4.63;3.10;;;24.60;42.80;;;;;;5095420;28;20400;-53
2023/07/31 11:37:58;;;;;;;6.77;3.37;;;24.60;43.40;;;;;;5096601;28;20823;-54
2023/07/31 11:40:34;;;;;;;3.50;2.70;;;24.60;42.80;;;;;;5096556;28;20398;-51
2023/07/31 11:43:04;;;;;;;5.50;2.80;;;24.60;43.10;;;;;;5095811;28;20413;-51
2023/07/31 11:45:30;;;;;;;4.20;2.80;;;24.70;42.50;;;;;;5095185;28;20397;-53
2023/07/31 11:47:57;;;;;;;5.37;2.97;;;24.70;42.80;;;;;;5096164;28;20394;-53
2023/07/31 11:50:26;;;;;;;6.37;3.20;;;24.80;43.40;;;;;;5095635;28;20406;-51
2023/07/31 11:53:00;;;;;;;4.70;2.70;;;24.90;43.20;;;;;;5094851;28;20462;-50
2023/07/31 11:55:26;;;;;;;5.20;3.30;;;25.00;42.70;;;;;;5124897;22;20575;-52
2023/07/31 11:57:54;;;;;;;5.07;2.97;;;25.10;42.40;;;;;;5114897;28;20898;-50
2023/07/31 12:00:20;;;;;;;4.17;3.00;;;25.10;41.60;;;;;;5114931;28;20457;-51
2023/07/31 12:02:46;;;;;;;7.17;3.03;;;25.30;41.90;;;;;;5114996;28;20437;-52
2023/07/31 12:05:13;;;;;;;3.37;2.73;;;25.30;40.90;;;;;;5128349;27;20448;-49
2023/07/31 12:07:47;;;;;;;4.43;3.27;;;25.40;41.30;;;;;;5135574;27;20449;-51
2023/07/31 12:10:30;;;;;;;5.50;2.70;;;25.40;41.70;;;;;;5135345;27;20396;-52
2023/07/31 12:13:26;;;;;;;4.73;3.17;;;25.50;41.20;;;;;;5135560;27;20778;-52
2023/07/31 12:16:00;;;;;;;5.90;3.10;;;25.70;42.40;;;;;;5126657;27;20436;-51
2023/07/31 12:18:27;;;;;;;2.93;2.40;;;25.90;41.50;;;;;;5135081;27;20415;-49
2023/07/31 12:20:58;;;;;;;4.10;2.67;;;26.10;41.20;;;;;;5135168;27;20788;-50
2023/07/31 12:23:30;;;;;;;3.50;2.77;;;26.30;40.40;;;;;;5135258;27;20909;-51
2023/07/31 12:26:11;;;;;;;5.70;2.80;;;26.50;40.00;;;;;;5135051;27;20513;-50
2023/07/31 12:28:38;;;;;;;4.20;2.47;;;26.60;39.40;;;;;;5133779;27;20893;-50
2023/07/31 12:31:05;;;;;;;4.57;2.40;;;26.60;39.70;;;;;;5134986;27;20436;-50
2023/07/31 12:33:32;;;;;;;4.10;2.20;;;26.60;39.20;;;;;;5134934;27;20408;-54
2023/07/31 12:36:00;;;;;;;3.73;2.83;;;26.70;39.00;;;;;;5134646;27;20956;-53
2023/07/31 12:38:26;;;;;;;5.97;2.97;;;26.70;38.30;;;;;;5126402;27;20407;-49
2023/07/31 12:40:52;;;;;;;3.20;2.43;;;26.70;38.70;;;;;;5114382;28;20401;-51
2023/07/31 12:43:17;;;;;;;4.80;2.50;;;26.70;38.90;;;;;;5114193;28;20896;-51
2023/07/31 12:45:43;;;;;;;3.23;2.23;;;26.80;39.60;;;;;;5114061;28;20278;-50